TimeAKDT,TemperatureF,Dew PointF,Humidity,Sea Level PressureIn,VisibilityMPH,Wind Direction,Wind SpeedMPH,Gust SpeedMPH,PrecipitationIn,Events,Conditions,WindDirDegrees,DateUTC
12:53 AM,50.0,42.1,74,29.95,10.0,Calm,Calm,-,N/A,,Overcast,0,2012-08-29 08:53:00
1:53 AM,54.0,37.9,55,29.96,10.0,NNE,5.8,-,N/A,,Overcast,20,2012-08-29 09:53:00
2:53 AM,53.1,37.9,57,29.96,10.0,North,8.1,-,N/A,,Overcast,10,2012-08-29 10:53:00
3:53 AM,53.1,37.9,57,29.97,10.0,NNE,5.8,-,N/A,,Overcast,20,2012-08-29 11:53:00
4:53 AM,51.1,39.0,63,29.98,10.0,NNE,4.6,-,N/A,,Mostly Cloudy,30,2012-08-29 12:53:00
5:53 AM,53.1,37.0,55,30.00,10.0,NNW,5.8,-,N/A,,Overcast,330,2012-08-29 13:53:00
6:53 AM,51.1,39.0,63,30.01,10.0,NW,6.9,-,N/A,,Overcast,310,2012-08-29 14:53:00
7:53 AM,53.1,39.9,61,30.03,10.0,Variable,3.5,-,N/A,,Overcast,0,2012-08-29 15:53:00
8:53 AM,57.0,37.0,47,30.04,10.0,NNE,12.7,-,N/A,,Overcast,30,2012-08-29 16:53:00
9:53 AM,60.1,37.9,44,30.04,10.0,NE,15.0,21.9,N/A,,Clear,40,2012-08-29 17:53:00
10:53 AM,62.1,36.0,38,30.03,10.0,NE,18.4,25.3,N/A,,Clear,40,2012-08-29 18:53:00
11:53 AM,64.0,35.1,34,30.02,10.0,NE,9.2,-,N/A,,Mostly Cloudy,40,2012-08-29 19:53:00
12:53 PM,64.9,35.1,33,30.01,10.0,NNE,10.4,-,N/A,,Scattered Clouds,30,2012-08-29 20:53:00
1:53 PM,66.9,35.1,31,30.00,10.0,NNE,10.4,-,N/A,,Clear,20,2012-08-29 21:53:00
2:53 PM,68.0,36.0,31,29.99,10.0,ENE,4.6,-,N/A,,Partly Cloudy,70,2012-08-29 22:53:00
3:53 PM,68.0,37.9,33,29.98,10.0,South,4.6,-,N/A,,Clear,180,2012-08-29 23:53:00
4:53 PM,66.9,39.0,36,29.98,10.0,Calm,Calm,-,N/A,,Clear,0,2012-08-30 00:53:00
5:53 PM,60.1,44.1,55,29.98,10.0,SW,3.5,-,N/A,,Clear,220,2012-08-30 01:53:00
6:53 PM,57.0,45.0,64,29.98,10.0,Calm,Calm,-,N/A,,Clear,0,2012-08-30 02:53:00
7:53 PM,55.0,45.0,69,30.00,10.0,NNE,3.5,-,N/A,,Clear,20,2012-08-30 03:53:00
8:53 PM,53.1,44.1,71,30.01,10.0,Calm,Calm,-,N/A,,Clear,0,2012-08-30 04:53:00
9:53 PM,51.1,44.1,77,30.04,10.0,Calm,Calm,-,N/A,,Clear,0,2012-08-30 05:53:00
10:53 PM,48.0,43.0,83,30.05,10.0,Calm,Calm,-,N/A,,Clear,0,2012-08-30 06:53:00
11:53 PM,46.9,43.0,86,30.05,10.0,Calm,Calm,-,N/A,,Clear,0,2012-08-30 07:53:00